sensor_id;sensor_type;location;lat;lon;timestamp;pressure;altitude;pressure_sealevel;temperature
70831;BMP180;58451;51.550;7.208;2022-07-05T00:01:23;101389.40;;;15.30
70831;BMP180;58451;51.550;7.208;2022-07-05T00:03:50;101388.80;;;15.24
70831;BMP180;58451;51.550;7.208;2022-07-05T00:06:17;101388.40;;;15.20
70831;BMP180;58451;51.550;7.208;2022-07-05T00:08:44;101388.40;;;15.20
70831;BMP180;58451;51.550;7.208;2022-07-05T00:11:11;101386.60;;;15.10
70831;BMP180;58451;51.550;7.208;2022-07-05T00:13:38;101389.20;;;15.10
70831;BMP180;58451;51.550;7.208;2022-07-05T00:16:05;101384.20;;;15.02
70831;BMP180;58451;51.550;7.208;2022-07-05T00:18:32;101381.60;;;15.00
70831;BMP180;58451;51.550;7.208;2022-07-05T00:20:59;101381.60;;;15.00
70831;BMP180;58451;51.550;7.208;2022-07-05T00:23:26;101382.20;;;14.90
70831;BMP180;58451;51.550;7.208;2022-07-05T00:25:53;101376.80;;;14.90
70831;BMP180;58451;51.550;7.208;2022-07-05T00:28:19;101377.40;;;14.80
70831;BMP180;58451;51.550;7.208;2022-07-05T00:30:46;101372.60;;;14.80
70831;BMP180;58451;51.550;7.208;2022-07-05T00:33:14;101372.20;;;14.78
70831;BMP180;58451;51.550;7.208;2022-07-05T00:35:40;101372.40;;;14.70
70831;BMP180;58451;51.550;7.208;2022-07-05T00:38:07;101376.20;;;14.70
70831;BMP180;58451;51.550;7.208;2022-07-05T00:40:34;101373.20;;;14.60
70831;BMP180;58451;51.550;7.208;2022-07-05T00:43:01;101375.60;;;14.60
70831;BMP180;58451;51.550;7.208;2022-07-05T00:45:28;101379.20;;;14.60
70831;BMP180;58451;51.550;7.208;2022-07-05T00:47:55;101381.80;;;14.50
70831;BMP180;58451;51.550;7.208;2022-07-05T00:50:22;101382.20;;;14.50
70831;BMP180;58451;51.550;7.208;2022-07-05T00:52:54;101383.60;;;14.50
70831;BMP180;58451;51.550;7.208;2022-07-05T00:55:22;101381.40;;;14.48
70831;BMP180;58451;51.550;7.208;2022-07-05T00:57:50;101383.20;;;14.50
70831;BMP180;58451;51.550;7.208;2022-07-05T01:00:17;101385.60;;;14.50
70831;BMP180;58451;51.550;7.208;2022-07-05T01:02:45;101388.80;;;14.50
70831;BMP180;58451;51.550;7.208;2022-07-05T01:05:12;101387.40;;;14.50
70831;BMP180;58451;51.550;7.208;2022-07-05T01:07:40;101389.60;;;14.60
70831;BMP180;58451;51.550;7.208;2022-07-05T01:10:07;101388.00;;;14.60
70831;BMP180;58451;51.550;7.208;2022-07-05T01:12:37;101389.20;;;14.70
70831;BMP180;58451;51.550;7.208;2022-07-05T01:15:06;101389.80;;;14.70
70831;BMP180;58451;51.550;7.208;2022-07-05T01:17:37;101393.60;;;14.70
70831;BMP180;58451;51.550;7.208;2022-07-05T01:20:06;101397.00;;;14.80
70831;BMP180;58451;51.550;7.208;2022-07-05T01:22:51;101388.80;;;14.80
70831;BMP180;58451;51.550;7.208;2022-07-05T01:25:25;101388.40;;;14.90
70831;BMP180;58451;51.550;7.208;2022-07-05T01:27:53;101395.80;;;14.90
70831;BMP180;58451;51.550;7.208;2022-07-05T01:30:21;101389.20;;;15.00
70831;BMP180;58451;51.550;7.208;2022-07-05T01:32:49;101386.00;;;15.00
70831;BMP180;58451;51.550;7.208;2022-07-05T01:35:18;101382.40;;;15.00
70831;BMP180;58451;51.550;7.208;2022-07-05T01:37:51;101387.40;;;15.10
70831;BMP180;58451;51.550;7.208;2022-07-05T01:40:20;101390.40;;;15.10
70831;BMP180;58451;51.550;7.208;2022-07-05T01:42:47;101384.20;;;15.10
70831;BMP180;58451;51.550;7.208;2022-07-05T01:45:15;101385.40;;;15.10
70831;BMP180;58451;51.550;7.208;2022-07-05T01:48:05;101389.60;;;15.10
70831;BMP180;58451;51.550;7.208;2022-07-05T01:50:41;101391.00;;;15.10
70831;BMP180;58451;51.550;7.208;2022-07-05T01:53:18;101391.20;;;15.10
70831;BMP180;58451;51.550;7.208;2022-07-05T01:55:49;101390.20;;;15.10
70831;BMP180;58451;51.550;7.208;2022-07-05T01:58:17;101392.40;;;15.12
70831;BMP180;58451;51.550;7.208;2022-07-05T02:00:49;101386.60;;;15.20
70831;BMP180;58451;51.550;7.208;2022-07-05T02:03:18;101391.00;;;15.20
70831;BMP180;58451;51.550;7.208;2022-07-05T02:06:05;101379.80;;;15.20
70831;BMP180;58451;51.550;7.208;2022-07-05T02:08:37;101372.40;;;15.20
70831;BMP180;58451;51.550;7.208;2022-07-05T02:11:07;101377.60;;;15.20
70831;BMP180;58451;51.550;7.208;2022-07-05T02:13:34;101374.40;;;15.10
70831;BMP180;58451;51.550;7.208;2022-07-05T02:16:01;101372.40;;;15.10
70831;BMP180;58451;51.550;7.208;2022-07-05T02:18:28;101376.40;;;15.00
70831;BMP180;58451;51.550;7.208;2022-07-05T02:20:55;101374.80;;;15.00
70831;BMP180;58451;51.550;7.208;2022-07-05T02:23:22;101375.20;;;14.90
70831;BMP180;58451;51.550;7.208;2022-07-05T02:25:49;101366.40;;;14.80
70831;BMP180;58451;51.550;7.208;2022-07-05T02:28:16;101366.60;;;14.72
70831;BMP180;58451;51.550;7.208;2022-07-05T02:30:45;101363.20;;;14.70
70831;BMP180;58451;51.550;7.208;2022-07-05T02:33:13;101368.40;;;14.60
70831;BMP180;58451;51.550;7.208;2022-07-05T02:35:40;101366.80;;;14.60
70831;BMP180;58451;51.550;7.208;2022-07-05T02:38:07;101366.20;;;14.50
70831;BMP180;58451;51.550;7.208;2022-07-05T02:40:34;101366.00;;;14.50
70831;BMP180;58451;51.550;7.208;2022-07-05T02:43:02;101363.00;;;14.50
70831;BMP180;58451;51.550;7.208;2022-07-05T02:45:29;101368.40;;;14.44
70831;BMP180;58451;51.550;7.208;2022-07-05T02:47:58;101377.80;;;14.40
70831;BMP180;58451;51.550;7.208;2022-07-05T02:50:26;101381.80;;;14.40
70831;BMP180;58451;51.550;7.208;2022-07-05T02:52:53;101383.40;;;14.50
70831;BMP180;58451;51.550;7.208;2022-07-05T02:55:20;101382.20;;;14.50
70831;BMP180;58451;51.550;7.208;2022-07-05T02:57:47;101378.40;;;14.50
70831;BMP180;58451;51.550;7.208;2022-07-05T03:00:16;101377.60;;;14.50
70831;BMP180;58451;51.550;7.208;2022-07-05T03:02:45;101378.20;;;14.50
70831;BMP180;58451;51.550;7.208;2022-07-05T03:05:11;101382.40;;;14.50
70831;BMP180;58451;51.550;7.208;2022-07-05T03:07:41;101382.00;;;14.50
70831;BMP180;58451;51.550;7.208;2022-07-05T03:10:08;101376.00;;;14.50
70831;BMP180;58451;51.550;7.208;2022-07-05T03:12:35;101375.20;;;14.50
70831;BMP180;58451;51.550;7.208;2022-07-05T03:15:03;101376.60;;;14.50
70831;BMP180;58451;51.550;7.208;2022-07-05T03:17:36;101385.60;;;14.50
70831;BMP180;58451;51.550;7.208;2022-07-05T03:20:04;101384.60;;;14.50
70831;BMP180;58451;51.550;7.208;2022-07-05T03:22:32;101380.40;;;14.52
70831;BMP180;58451;51.550;7.208;2022-07-05T03:24:59;101381.40;;;14.60
70831;BMP180;58451;51.550;7.208;2022-07-05T03:27:27;101386.60;;;14.60
70831;BMP180;58451;51.550;7.208;2022-07-05T03:29:54;101382.00;;;14.60
70831;BMP180;58451;51.550;7.208;2022-07-05T03:32:22;101392.40;;;14.60
70831;BMP180;58451;51.550;7.208;2022-07-05T03:34:49;101393.00;;;14.60
70831;BMP180;58451;51.550;7.208;2022-07-05T03:37:16;101397.60;;;14.70
70831;BMP180;58451;51.550;7.208;2022-07-05T03:39:44;101393.00;;;14.70
70831;BMP180;58451;51.550;7.208;2022-07-05T03:42:12;101397.00;;;14.70
70831;BMP180;58451;51.550;7.208;2022-07-05T03:44:39;101395.80;;;14.74
70831;BMP180;58451;51.550;7.208;2022-07-05T03:47:06;101396.80;;;14.80
70831;BMP180;58451;51.550;7.208;2022-07-05T03:49:33;101391.20;;;14.80
70831;BMP180;58451;51.550;7.208;2022-07-05T03:52:00;101391.00;;;14.80
70831;BMP180;58451;51.550;7.208;2022-07-05T03:54:27;101395.20;;;14.86
70831;BMP180;58451;51.550;7.208;2022-07-05T03:56:54;101398.40;;;14.90
70831;BMP180;58451;51.550;7.208;2022-07-05T03:59:21;101396.00;;;14.90
70831;BMP180;58451;51.550;7.208;2022-07-05T04:01:48;101398.60;;;14.90
70831;BMP180;58451;51.550;7.208;2022-07-05T04:04:15;101402.00;;;15.00
70831;BMP180;58451;51.550;7.208;2022-07-05T04:06:42;101402.20;;;15.00
70831;BMP180;58451;51.550;7.208;2022-07-05T04:09:10;101401.60;;;15.00
70831;BMP180;58451;51.550;7.208;2022-07-05T04:11:38;101408.00;;;15.06
70831;BMP180;58451;51.550;7.208;2022-07-05T04:14:04;101405.60;;;15.10
70831;BMP180;58451;51.550;7.208;2022-07-05T04:16:31;101405.40;;;15.04
70831;BMP180;58451;51.550;7.208;2022-07-05T04:19:00;101403.80;;;15.00
70831;BMP180;58451;51.550;7.208;2022-07-05T04:21:27;101414.00;;;15.00
70831;BMP180;58451;51.550;7.208;2022-07-05T04:23:55;101412.40;;;15.00
70831;BMP180;58451;51.550;7.208;2022-07-05T04:26:22;101413.80;;;15.00
70831;BMP180;58451;51.550;7.208;2022-07-05T04:28:49;101411.80;;;15.00
70831;BMP180;58451;51.550;7.208;2022-07-05T04:31:24;101415.60;;;15.00
70831;BMP180;58451;51.550;7.208;2022-07-05T04:33:52;101418.00;;;15.00
70831;BMP180;58451;51.550;7.208;2022-07-05T04:36:21;101417.80;;;15.06
70831;BMP180;58451;51.550;7.208;2022-07-05T04:38:51;101419.00;;;15.10
70831;BMP180;58451;51.550;7.208;2022-07-05T04:41:18;101420.00;;;15.10
70831;BMP180;58451;51.550;7.208;2022-07-05T04:43:45;101417.60;;;15.20
70831;BMP180;58451;51.550;7.208;2022-07-05T04:46:12;101420.40;;;15.20
70831;BMP180;58451;51.550;7.208;2022-07-05T04:48:40;101421.20;;;15.30
70831;BMP180;58451;51.550;7.208;2022-07-05T04:51:08;101422.40;;;15.38
70831;BMP180;58451;51.550;7.208;2022-07-05T04:53:35;101425.00;;;15.40
70831;BMP180;58451;51.550;7.208;2022-07-05T04:56:02;101424.60;;;15.40
70831;BMP180;58451;51.550;7.208;2022-07-05T04:58:29;101423.00;;;15.50
70831;BMP180;58451;51.550;7.208;2022-07-05T05:00:55;101424.80;;;15.52
70831;BMP180;58451;51.550;7.208;2022-07-05T05:03:22;101424.80;;;15.54
70831;BMP180;58451;51.550;7.208;2022-07-05T05:05:49;101425.40;;;15.60
70831;BMP180;58451;51.550;7.208;2022-07-05T05:08:17;101427.60;;;15.70
70831;BMP180;58451;51.550;7.208;2022-07-05T05:10:44;101429.20;;;15.80
70831;BMP180;58451;51.550;7.208;2022-07-05T05:13:10;101426.80;;;15.90
70831;BMP180;58451;51.550;7.208;2022-07-05T05:15:37;101430.00;;;16.00
70831;BMP180;58451;51.550;7.208;2022-07-05T05:18:04;101434.00;;;16.10
70831;BMP180;58451;51.550;7.208;2022-07-05T05:20:31;101440.80;;;16.18
70831;BMP180;58451;51.550;7.208;2022-07-05T05:23:05;101442.80;;;16.30
70831;BMP180;58451;51.550;7.208;2022-07-05T05:25:32;101441.60;;;16.40
70831;BMP180;58451;51.550;7.208;2022-07-05T05:28:00;101442.40;;;16.50
70831;BMP180;58451;51.550;7.208;2022-07-05T05:30:27;101441.60;;;16.64
70831;BMP180;58451;51.550;7.208;2022-07-05T05:32:54;101438.40;;;16.80
70831;BMP180;58451;51.550;7.208;2022-07-05T05:35:21;101443.60;;;16.90
70831;BMP180;58451;51.550;7.208;2022-07-05T05:37:56;101439.40;;;17.10
70831;BMP180;58451;51.550;7.208;2022-07-05T05:40:25;101449.80;;;17.30
70831;BMP180;58451;51.550;7.208;2022-07-05T05:42:54;101444.80;;;17.40
70831;BMP180;58451;51.550;7.208;2022-07-05T05:45:22;101447.60;;;17.56
70831;BMP180;58451;51.550;7.208;2022-07-05T05:47:53;101449.20;;;17.70
70831;BMP180;58451;51.550;7.208;2022-07-05T05:50:29;101453.40;;;17.80
70831;BMP180;58451;51.550;7.208;2022-07-05T05:52:58;101452.20;;;17.80
70831;BMP180;58451;51.550;7.208;2022-07-05T05:55:27;101452.00;;;17.80
70831;BMP180;58451;51.550;7.208;2022-07-05T05:57:54;101451.80;;;17.70
70831;BMP180;58451;51.550;7.208;2022-07-05T06:00:22;101456.60;;;17.70
70831;BMP180;58451;51.550;7.208;2022-07-05T06:02:50;101456.20;;;17.80
70831;BMP180;58451;51.550;7.208;2022-07-05T06:05:18;101455.00;;;17.90
70831;BMP180;58451;51.550;7.208;2022-07-05T06:10:27;101457.00;;;18.00
70831;BMP180;58451;51.550;7.208;2022-07-05T06:12:58;101461.40;;;18.18
70831;BMP180;58451;51.550;7.208;2022-07-05T06:15:26;101459.60;;;18.30
70831;BMP180;58451;51.550;7.208;2022-07-05T06:17:53;101466.20;;;18.50
70831;BMP180;58451;51.550;7.208;2022-07-05T06:20:24;101465.60;;;18.70
70831;BMP180;58451;51.550;7.208;2022-07-05T06:22:52;101466.80;;;18.90
70831;BMP180;58451;51.550;7.208;2022-07-05T06:25:19;101471.40;;;19.18
70831;BMP180;58451;51.550;7.208;2022-07-05T06:27:56;101470.20;;;19.30
70831;BMP180;58451;51.550;7.208;2022-07-05T06:30:25;101475.80;;;19.40
70831;BMP180;58451;51.550;7.208;2022-07-05T06:32:53;101475.00;;;19.40
70831;BMP180;58451;51.550;7.208;2022-07-05T06:35:22;101468.60;;;19.50
70831;BMP180;58451;51.550;7.208;2022-07-05T06:38:00;101469.20;;;19.50
70831;BMP180;58451;51.550;7.208;2022-07-05T06:40:33;101467.00;;;19.60
70831;BMP180;58451;51.550;7.208;2022-07-05T06:43:04;101473.60;;;19.70
70831;BMP180;58451;51.550;7.208;2022-07-05T06:45:39;101474.80;;;19.80
70831;BMP180;58451;51.550;7.208;2022-07-05T06:48:10;101479.60;;;19.80
70831;BMP180;58451;51.550;7.208;2022-07-05T06:50:42;101475.20;;;19.76
70831;BMP180;58451;51.550;7.208;2022-07-05T06:53:10;101477.60;;;19.66
70831;BMP180;58451;51.550;7.208;2022-07-05T06:55:38;101479.00;;;19.80
70831;BMP180;58451;51.550;7.208;2022-07-05T06:58:19;101476.80;;;19.90
70831;BMP180;58451;51.550;7.208;2022-07-05T07:00:46;101484.20;;;20.00
70831;BMP180;58451;51.550;7.208;2022-07-05T07:03:32;101486.00;;;20.00
70831;BMP180;58451;51.550;7.208;2022-07-05T07:06:20;101486.00;;;20.10
70831;BMP180;58451;51.550;7.208;2022-07-05T07:08:47;101484.00;;;20.10
70831;BMP180;58451;51.550;7.208;2022-07-05T07:11:32;101482.60;;;20.20
70831;BMP180;58451;51.550;7.208;2022-07-05T07:13:58;101488.80;;;20.22
70831;BMP180;58451;51.550;7.208;2022-07-05T07:16:25;101492.80;;;20.50
70831;BMP180;58451;51.550;7.208;2022-07-05T07:18:53;101488.00;;;20.60
70831;BMP180;58451;51.550;7.208;2022-07-05T07:21:40;101493.20;;;20.80
70831;BMP180;58451;51.550;7.208;2022-07-05T07:24:09;101491.60;;;20.90
70831;BMP180;58451;51.550;7.208;2022-07-05T07:26:37;101491.60;;;21.00
70831;BMP180;58451;51.550;7.208;2022-07-05T07:29:23;101488.80;;;21.00
70831;BMP180;58451;51.550;7.208;2022-07-05T07:31:50;101496.20;;;20.90
70831;BMP180;58451;51.550;7.208;2022-07-05T07:34:17;101496.60;;;20.92
70831;BMP180;58451;51.550;7.208;2022-07-05T07:36:44;101496.00;;;21.00
70831;BMP180;58451;51.550;7.208;2022-07-05T07:39:11;101496.00;;;21.10
70831;BMP180;58451;51.550;7.208;2022-07-05T07:41:38;101496.60;;;21.20
70831;BMP180;58451;51.550;7.208;2022-07-05T07:44:05;101500.00;;;21.20
70831;BMP180;58451;51.550;7.208;2022-07-05T07:46:32;101498.60;;;21.10
70831;BMP180;58451;51.550;7.208;2022-07-05T07:48:59;101499.00;;;21.00
70831;BMP180;58451;51.550;7.208;2022-07-05T07:51:26;101498.00;;;21.00
70831;BMP180;58451;51.550;7.208;2022-07-05T07:53:54;101504.60;;;21.20
70831;BMP180;58451;51.550;7.208;2022-07-05T07:56:38;101495.40;;;21.36
70831;BMP180;58451;51.550;7.208;2022-07-05T07:59:05;101500.20;;;21.84
70831;BMP180;58451;51.550;7.208;2022-07-05T08:01:32;101503.80;;;22.10
70831;BMP180;58451;51.550;7.208;2022-07-05T08:04:04;101501.40;;;22.10
70831;BMP180;58451;51.550;7.208;2022-07-05T08:06:31;101501.20;;;22.00
70831;BMP180;58451;51.550;7.208;2022-07-05T08:08:58;101499.20;;;22.28
70831;BMP180;58451;51.550;7.208;2022-07-05T08:11:24;101506.20;;;22.40
70831;BMP180;58451;51.550;7.208;2022-07-05T08:13:52;101509.80;;;22.28
70831;BMP180;58451;51.550;7.208;2022-07-05T08:16:19;101508.60;;;21.92
70831;BMP180;58451;51.550;7.208;2022-07-05T08:18:45;101503.80;;;21.66
70831;BMP180;58451;51.550;7.208;2022-07-05T08:21:31;101509.80;;;21.60
70831;BMP180;58451;51.550;7.208;2022-07-05T08:24:06;101512.20;;;21.50
70831;BMP180;58451;51.550;7.208;2022-07-05T08:26:35;101512.00;;;21.30
70831;BMP180;58451;51.550;7.208;2022-07-05T08:29:06;101510.20;;;21.16
70831;BMP180;58451;51.550;7.208;2022-07-05T08:31:45;101513.20;;;21.34
70831;BMP180;58451;51.550;7.208;2022-07-05T08:34:13;101516.80;;;21.46
70831;BMP180;58451;51.550;7.208;2022-07-05T08:36:40;101518.60;;;21.50
70831;BMP180;58451;51.550;7.208;2022-07-05T08:39:10;101514.20;;;21.60
70831;BMP180;58451;51.550;7.208;2022-07-05T08:41:40;101518.20;;;21.80
70831;BMP180;58451;51.550;7.208;2022-07-05T08:44:08;101513.00;;;21.80
70831;BMP180;58451;51.550;7.208;2022-07-05T08:46:39;101506.00;;;21.90
70831;BMP180;58451;51.550;7.208;2022-07-05T08:49:13;101511.20;;;21.90
70831;BMP180;58451;51.550;7.208;2022-07-05T08:51:42;101502.80;;;21.80
70831;BMP180;58451;51.550;7.208;2022-07-05T08:54:11;101506.40;;;22.10
70831;BMP180;58451;51.550;7.208;2022-07-05T08:56:44;101515.80;;;22.30
70831;BMP180;58451;51.550;7.208;2022-07-05T08:59:32;101516.40;;;22.40
70831;BMP180;58451;51.550;7.208;2022-07-05T09:02:00;101514.20;;;22.30
70831;BMP180;58451;51.550;7.208;2022-07-05T09:04:35;101507.00;;;22.50
70831;BMP180;58451;51.550;7.208;2022-07-05T09:07:13;101515.80;;;22.42
70831;BMP180;58451;51.550;7.208;2022-07-05T09:09:42;101515.60;;;22.30
70831;BMP180;58451;51.550;7.208;2022-07-05T09:12:12;101517.80;;;22.26
70831;BMP180;58451;51.550;7.208;2022-07-05T09:14:53;101507.80;;;22.10
70831;BMP180;58451;51.550;7.208;2022-07-05T09:17:21;101507.60;;;22.30
70831;BMP180;58451;51.550;7.208;2022-07-05T09:22:54;101508.40;;;22.80
70831;BMP180;58451;51.550;7.208;2022-07-05T09:25:28;101516.40;;;22.76
70831;BMP180;58451;51.550;7.208;2022-07-05T09:30:29;101510.20;;;22.30
70831;BMP180;58451;51.550;7.208;2022-07-05T09:33:07;101514.00;;;22.10
70831;BMP180;58451;51.550;7.208;2022-07-05T09:35:37;101514.40;;;22.20
70831;BMP180;58451;51.550;7.208;2022-07-05T09:38:07;101507.60;;;22.18
70831;BMP180;58451;51.550;7.208;2022-07-05T09:41:01;101508.40;;;22.34
70831;BMP180;58451;51.550;7.208;2022-07-05T09:43:29;101504.40;;;22.60
70831;BMP180;58451;51.550;7.208;2022-07-05T09:45:58;101510.80;;;22.70
70831;BMP180;58451;51.550;7.208;2022-07-05T09:48:28;101514.60;;;22.60
70831;BMP180;58451;51.550;7.208;2022-07-05T09:51:09;101514.60;;;22.30
70831;BMP180;58451;51.550;7.208;2022-07-05T09:53:59;101515.40;;;22.00
70831;BMP180;58451;51.550;7.208;2022-07-05T09:56:30;101515.40;;;21.88
70831;BMP180;58451;51.550;7.208;2022-07-05T09:59:19;101499.80;;;21.70
70831;BMP180;58451;51.550;7.208;2022-07-05T10:01:49;101505.20;;;21.90
70831;BMP180;58451;51.550;7.208;2022-07-05T10:04:16;101501.20;;;22.10
70831;BMP180;58451;51.550;7.208;2022-07-05T10:06:44;101500.20;;;22.52
70831;BMP180;58451;51.550;7.208;2022-07-05T10:09:12;101503.20;;;22.90
70831;BMP180;58451;51.550;7.208;2022-07-05T10:11:44;101508.40;;;23.40
70831;BMP180;58451;51.550;7.208;2022-07-05T10:14:18;101514.40;;;23.20
70831;BMP180;58451;51.550;7.208;2022-07-05T10:16:52;101518.00;;;22.98
70831;BMP180;58451;51.550;7.208;2022-07-05T10:19:23;101519.80;;;22.68
70831;BMP180;58451;51.550;7.208;2022-07-05T10:21:52;101514.60;;;22.40
70831;BMP180;58451;51.550;7.208;2022-07-05T10:24:40;101515.20;;;22.50
70831;BMP180;58451;51.550;7.208;2022-07-05T10:27:08;101510.20;;;22.50
70831;BMP180;58451;51.550;7.208;2022-07-05T10:29:36;101511.60;;;22.62
70831;BMP180;58451;51.550;7.208;2022-07-05T10:32:07;101512.60;;;22.70
70831;BMP180;58451;51.550;7.208;2022-07-05T10:34:39;101508.00;;;22.58
70831;BMP180;58451;51.550;7.208;2022-07-05T10:37:31;101513.20;;;22.58
70831;BMP180;58451;51.550;7.208;2022-07-05T10:40:02;101506.20;;;22.40
70831;BMP180;58451;51.550;7.208;2022-07-05T10:42:46;101500.40;;;22.50
70831;BMP180;58451;51.550;7.208;2022-07-05T10:45:34;101501.40;;;22.90
70831;BMP180;58451;51.550;7.208;2022-07-05T10:50:59;101496.40;;;23.20
70831;BMP180;58451;51.550;7.208;2022-07-05T10:59:03;101503.60;;;23.48
70831;BMP180;58451;51.550;7.208;2022-07-05T11:01:34;101494.20;;;23.40
70831;BMP180;58451;51.550;7.208;2022-07-05T11:06:41;101483.00;;;23.80
70831;BMP180;58451;51.550;7.208;2022-07-05T11:12:02;101498.00;;;24.42
70831;BMP180;58451;51.550;7.208;2022-07-05T11:14:49;101498.20;;;24.16
70831;BMP180;58451;51.550;7.208;2022-07-05T11:17:20;101496.00;;;23.90
70831;BMP180;58451;51.550;7.208;2022-07-05T11:20:16;101493.40;;;23.70
70831;BMP180;58451;51.550;7.208;2022-07-05T11:23:07;101499.00;;;23.60
70831;BMP180;58451;51.550;7.208;2022-07-05T11:25:45;101500.40;;;23.60
70831;BMP180;58451;51.550;7.208;2022-07-05T11:28:19;101501.00;;;23.98
70831;BMP180;58451;51.550;7.208;2022-07-05T11:30:58;101501.80;;;24.10
70831;BMP180;58451;51.550;7.208;2022-07-05T11:33:38;101499.20;;;24.02
70831;BMP180;58451;51.550;7.208;2022-07-05T11:36:20;101502.80;;;24.28
70831;BMP180;58451;51.550;7.208;2022-07-05T11:39:15;101503.00;;;24.30
70831;BMP180;58451;51.550;7.208;2022-07-05T11:41:48;101498.60;;;24.30
70831;BMP180;58451;51.550;7.208;2022-07-05T11:44:16;101495.60;;;24.52
70831;BMP180;58451;51.550;7.208;2022-07-05T11:46:45;101494.60;;;24.70
70831;BMP180;58451;51.550;7.208;2022-07-05T11:49:23;101488.20;;;24.50
70831;BMP180;58451;51.550;7.208;2022-07-05T11:51:59;101480.80;;;24.76
70831;BMP180;58451;51.550;7.208;2022-07-05T11:54:33;101482.40;;;25.00
70831;BMP180;58451;51.550;7.208;2022-07-05T11:57:02;101487.20;;;24.90
70831;BMP180;58451;51.550;7.208;2022-07-05T11:59:29;101478.60;;;24.90
70831;BMP180;58451;51.550;7.208;2022-07-05T12:01:56;101476.60;;;25.00
70831;BMP180;58451;51.550;7.208;2022-07-05T12:04:30;101468.60;;;24.90
70831;BMP180;58451;51.550;7.208;2022-07-05T12:06:58;101471.20;;;25.10
70831;BMP180;58451;51.550;7.208;2022-07-05T12:09:31;101464.80;;;25.18
70831;BMP180;58451;51.550;7.208;2022-07-05T12:12:23;101470.40;;;25.50
70831;BMP180;58451;51.550;7.208;2022-07-05T12:15:13;101475.20;;;25.70
70831;BMP180;58451;51.550;7.208;2022-07-05T12:17:44;101462.60;;;25.60
70831;BMP180;58451;51.550;7.208;2022-07-05T12:20:21;101467.00;;;25.80
70831;BMP180;58451;51.550;7.208;2022-07-05T12:22:50;101472.20;;;25.80
70831;BMP180;58451;51.550;7.208;2022-07-05T12:25:21;101469.80;;;25.46
70831;BMP180;58451;51.550;7.208;2022-07-05T12:27:51;101468.60;;;25.26
70831;BMP180;58451;51.550;7.208;2022-07-05T12:30:18;101470.60;;;25.26
70831;BMP180;58451;51.550;7.208;2022-07-05T12:33:07;101469.60;;;25.30
70831;BMP180;58451;51.550;7.208;2022-07-05T12:35:46;101477.60;;;24.84
70831;BMP180;58451;51.550;7.208;2022-07-05T12:38:19;101466.20;;;24.70
70831;BMP180;58451;51.550;7.208;2022-07-05T12:40:59;101455.60;;;24.90
70831;BMP180;58451;51.550;7.208;2022-07-05T12:43:26;101458.40;;;25.20
70831;BMP180;58451;51.550;7.208;2022-07-05T12:46:07;101453.60;;;25.68
70831;BMP180;58451;51.550;7.208;2022-07-05T12:48:37;101458.80;;;25.92
70831;BMP180;58451;51.550;7.208;2022-07-05T12:51:08;101455.40;;;25.80
70831;BMP180;58451;51.550;7.208;2022-07-05T12:53:49;101457.40;;;25.92
70831;BMP180;58451;51.550;7.208;2022-07-05T12:56:36;101467.40;;;25.90
70831;BMP180;58451;51.550;7.208;2022-07-05T13:00:07;101458.20;;;26.20
70831;BMP180;58451;51.550;7.208;2022-07-05T13:02:45;101461.40;;;26.40
70831;BMP180;58451;51.550;7.208;2022-07-05T13:05:22;101459.00;;;26.40
70831;BMP180;58451;51.550;7.208;2022-07-05T13:07:52;101461.80;;;26.70
70831;BMP180;58451;51.550;7.208;2022-07-05T13:10:27;101464.80;;;26.70
70831;BMP180;58451;51.550;7.208;2022-07-05T13:13:06;101451.00;;;26.80
70831;BMP180;58451;51.550;7.208;2022-07-05T13:15:36;101453.60;;;27.16
70831;BMP180;58451;51.550;7.208;2022-07-05T13:18:04;101448.80;;;27.60
70831;BMP180;58451;51.550;7.208;2022-07-05T13:20:31;101456.80;;;27.90
70831;BMP180;58451;51.550;7.208;2022-07-05T13:22:58;101460.40;;;27.86
70831;BMP180;58451;51.550;7.208;2022-07-05T13:25:25;101452.80;;;27.30
70831;BMP180;58451;51.550;7.208;2022-07-05T13:27:52;101464.20;;;27.20
70831;BMP180;58451;51.550;7.208;2022-07-05T13:30:20;101463.20;;;26.92
70831;BMP180;58451;51.550;7.208;2022-07-05T13:32:46;101466.60;;;26.72
70831;BMP180;58451;51.550;7.208;2022-07-05T13:35:13;101459.80;;;26.34
70831;BMP180;58451;51.550;7.208;2022-07-05T13:37:40;101459.60;;;26.40
70831;BMP180;58451;51.550;7.208;2022-07-05T13:40:08;101459.60;;;26.60
70831;BMP180;58451;51.550;7.208;2022-07-05T13:42:35;101459.60;;;27.00
70831;BMP180;58451;51.550;7.208;2022-07-05T13:45:02;101442.40;;;27.10
70831;BMP180;58451;51.550;7.208;2022-07-05T13:47:29;101437.60;;;27.90
70831;BMP180;58451;51.550;7.208;2022-07-05T13:49:56;101429.60;;;28.24
70831;BMP180;58451;51.550;7.208;2022-07-05T13:52:42;101447.80;;;28.78
70831;BMP180;58451;51.550;7.208;2022-07-05T13:55:09;101419.40;;;29.62
70831;BMP180;58451;51.550;7.208;2022-07-05T13:57:36;101443.20;;;30.38
70831;BMP180;58451;51.550;7.208;2022-07-05T14:00:03;101441.20;;;30.34
70831;BMP180;58451;51.550;7.208;2022-07-05T14:02:31;101465.00;;;29.34
70831;BMP180;58451;51.550;7.208;2022-07-05T14:04:58;101470.80;;;28.40
70831;BMP180;58451;51.550;7.208;2022-07-05T14:07:25;101419.40;;;27.78
70831;BMP180;58451;51.550;7.208;2022-07-05T14:09:51;101416.40;;;28.82
70831;BMP180;58451;51.550;7.208;2022-07-05T14:12:18;101411.80;;;30.10
70831;BMP180;58451;51.550;7.208;2022-07-05T14:14:45;101467.20;;;30.70
70831;BMP180;58451;51.550;7.208;2022-07-05T14:17:12;101465.00;;;29.84
70831;BMP180;58451;51.550;7.208;2022-07-05T14:19:39;101465.00;;;28.92
70831;BMP180;58451;51.550;7.208;2022-07-05T14:22:06;101454.80;;;28.32
70831;BMP180;58451;51.550;7.208;2022-07-05T14:24:33;101457.60;;;28.12
70831;BMP180;58451;51.550;7.208;2022-07-05T14:27:00;101459.80;;;27.64
70831;BMP180;58451;51.550;7.208;2022-07-05T14:29:27;101462.00;;;27.02
70831;BMP180;58451;51.550;7.208;2022-07-05T14:31:54;101404.00;;;26.82
70831;BMP180;58451;51.550;7.208;2022-07-05T14:34:21;101413.60;;;28.50
70831;BMP180;58451;51.550;7.208;2022-07-05T14:36:47;101416.80;;;30.04
70831;BMP180;58451;51.550;7.208;2022-07-05T14:39:14;101417.80;;;31.12